sensor_id;sensor_type;location;lat;lon;timestamp;P1;durP1;ratioP1;P2;durP2;ratioP2
59093;SDS011;44880;52.814;18.270;2023-04-29T00:00:14;22.50;;;14.50;;
59093;SDS011;44880;52.814;18.270;2023-04-29T00:03:06;20.00;;;13.60;;
59093;SDS011;44880;52.814;18.270;2023-04-29T00:05:38;24.80;;;14.40;;
59093;SDS011;44880;52.814;18.270;2023-04-29T00:08:09;22.30;;;14.90;;
59093;SDS011;44880;52.814;18.270;2023-04-29T00:10:42;21.30;;;14.60;;
59093;SDS011;44880;52.814;18.270;2023-04-29T00:13:13;21.80;;;15.40;;
59093;SDS011;44880;52.814;18.270;2023-04-29T00:15:45;22.50;;;14.70;;
59093;SDS011;44880;52.814;18.270;2023-04-29T00:18:17;24.40;;;15.20;;
59093;SDS011;44880;52.814;18.270;2023-04-29T00:20:49;24.50;;;15.50;;
59093;SDS011;44880;52.814;18.270;2023-04-29T00:23:20;24.50;;;15.00;;
59093;SDS011;44880;52.814;18.270;2023-04-29T00:25:52;24.70;;;16.10;;
59093;SDS011;44880;52.814;18.270;2023-04-29T00:28:24;23.10;;;14.80;;
59093;SDS011;44880;52.814;18.270;2023-04-29T00:30:55;24.20;;;14.20;;
59093;SDS011;44880;52.814;18.270;2023-04-29T00:33:27;22.90;;;14.60;;
59093;SDS011;44880;52.814;18.270;2023-04-29T00:35:59;23.30;;;15.10;;
59093;SDS011;44880;52.814;18.270;2023-04-29T00:41:01;22.30;;;16.00;;
59093;SDS011;44880;52.814;18.270;2023-04-29T00:43:33;22.50;;;14.60;;
59093;SDS011;44880;52.814;18.270;2023-04-29T00:46:05;25.80;;;16.20;;
59093;SDS011;44880;52.814;18.270;2023-04-29T00:48:37;24.80;;;16.50;;
59093;SDS011;44880;52.814;18.270;2023-04-29T00:51:10;23.00;;;16.00;;
59093;SDS011;44880;52.814;18.270;2023-04-29T00:53:42;20.90;;;14.60;;
59093;SDS011;44880;52.814;18.270;2023-04-29T00:56:14;22.80;;;16.30;;
59093;SDS011;44880;52.814;18.270;2023-04-29T00:58:48;21.00;;;14.60;;
59093;SDS011;44880;52.814;18.270;2023-04-29T01:01:20;25.80;;;15.80;;
59093;SDS011;44880;52.814;18.270;2023-04-29T01:03:51;25.30;;;15.60;;
59093;SDS011;44880;52.814;18.270;2023-04-29T01:06:25;23.80;;;15.40;;
59093;SDS011;44880;52.814;18.270;2023-04-29T01:09:15;27.80;;;17.50;;
59093;SDS011;44880;52.814;18.270;2023-04-29T01:11:54;25.20;;;15.70;;
59093;SDS011;44880;52.814;18.270;2023-04-29T01:14:34;23.60;;;16.00;;
59093;SDS011;44880;52.814;18.270;2023-04-29T01:19:45;25.80;;;15.50;;
59093;SDS011;44880;52.814;18.270;2023-04-29T01:22:18;27.40;;;16.80;;
59093;SDS011;44880;52.814;18.270;2023-04-29T01:24:50;26.40;;;16.30;;
59093;SDS011;44880;52.814;18.270;2023-04-29T01:27:26;23.20;;;15.90;;
59093;SDS011;44880;52.814;18.270;2023-04-29T01:30:09;26.60;;;15.80;;
59093;SDS011;44880;52.814;18.270;2023-04-29T01:32:45;25.50;;;15.80;;
59093;SDS011;44880;52.814;18.270;2023-04-29T01:35:27;24.50;;;16.60;;
59093;SDS011;44880;52.814;18.270;2023-04-29T01:38:06;24.70;;;16.40;;
59093;SDS011;44880;52.814;18.270;2023-04-29T01:40:44;23.70;;;16.10;;
59093;SDS011;44880;52.814;18.270;2023-04-29T01:45:57;29.40;;;16.20;;
59093;SDS011;44880;52.814;18.270;2023-04-29T01:48:31;25.80;;;15.90;;
59093;SDS011;44880;52.814;18.270;2023-04-29T01:53:34;25.90;;;15.40;;
59093;SDS011;44880;52.814;18.270;2023-04-29T01:56:07;26.30;;;16.30;;
59093;SDS011;44880;52.814;18.270;2023-04-29T01:58:51;26.20;;;16.10;;
59093;SDS011;44880;52.814;18.270;2023-04-29T02:01:35;24.50;;;15.20;;
59093;SDS011;44880;52.814;18.270;2023-04-29T02:04:07;23.20;;;15.50;;
59093;SDS011;44880;52.814;18.270;2023-04-29T02:06:39;25.70;;;15.70;;
59093;SDS011;44880;52.814;18.270;2023-04-29T02:09:10;24.50;;;16.10;;
59093;SDS011;44880;52.814;18.270;2023-04-29T02:11:44;24.30;;;16.10;;
59093;SDS011;44880;52.814;18.270;2023-04-29T02:14:15;24.70;;;15.50;;
59093;SDS011;44880;52.814;18.270;2023-04-29T02:16:47;24.60;;;16.10;;
59093;SDS011;44880;52.814;18.270;2023-04-29T02:19:19;22.20;;;14.60;;
59093;SDS011;44880;52.814;18.270;2023-04-29T02:21:53;23.10;;;15.20;;
59093;SDS011;44880;52.814;18.270;2023-04-29T02:24:25;24.50;;;15.60;;
59093;SDS011;44880;52.814;18.270;2023-04-29T02:26:56;24.60;;;15.30;;
59093;SDS011;44880;52.814;18.270;2023-04-29T02:29:28;22.70;;;15.30;;
59093;SDS011;44880;52.814;18.270;2023-04-29T02:32:00;23.50;;;15.40;;
59093;SDS011;44880;52.814;18.270;2023-04-29T02:34:32;25.80;;;15.70;;
59093;SDS011;44880;52.814;18.270;2023-04-29T02:37:03;21.50;;;15.40;;
59093;SDS011;44880;52.814;18.270;2023-04-29T02:39:35;24.90;;;15.30;;
59093;SDS011;44880;52.814;18.270;2023-04-29T02:42:06;24.80;;;15.60;;
59093;SDS011;44880;52.814;18.270;2023-04-29T02:44:38;24.40;;;15.20;;
59093;SDS011;44880;52.814;18.270;2023-04-29T02:47:10;22.70;;;14.90;;
59093;SDS011;44880;52.814;18.270;2023-04-29T02:52:13;28.10;;;15.80;;
59093;SDS011;44880;52.814;18.270;2023-04-29T02:54:46;27.50;;;14.70;;
59093;SDS011;44880;52.814;18.270;2023-04-29T02:57:17;23.40;;;15.10;;
59093;SDS011;44880;52.814;18.270;2023-04-29T02:59:49;23.10;;;14.50;;
59093;SDS011;44880;52.814;18.270;2023-04-29T03:02:21;24.60;;;15.40;;
59093;SDS011;44880;52.814;18.270;2023-04-29T03:04:55;21.90;;;14.70;;
59093;SDS011;44880;52.814;18.270;2023-04-29T03:07:27;23.10;;;14.40;;
59093;SDS011;44880;52.814;18.270;2023-04-29T03:09:59;22.80;;;14.80;;
59093;SDS011;44880;52.814;18.270;2023-04-29T03:12:31;25.60;;;15.70;;
59093;SDS011;44880;52.814;18.270;2023-04-29T03:17:34;23.50;;;14.10;;
59093;SDS011;44880;52.814;18.270;2023-04-29T03:20:07;24.30;;;15.50;;
59093;SDS011;44880;52.814;18.270;2023-04-29T03:22:39;23.20;;;14.90;;
59093;SDS011;44880;52.814;18.270;2023-04-29T03:25:11;23.00;;;14.80;;
59093;SDS011;44880;52.814;18.270;2023-04-29T03:27:43;23.80;;;14.50;;
59093;SDS011;44880;52.814;18.270;2023-04-29T03:30:14;23.00;;;14.70;;
59093;SDS011;44880;52.814;18.270;2023-04-29T03:32:50;23.90;;;15.00;;
59093;SDS011;44880;52.814;18.270;2023-04-29T03:35:21;22.90;;;15.10;;
59093;SDS011;44880;52.814;18.270;2023-04-29T03:38:12;24.80;;;13.80;;
59093;SDS011;44880;52.814;18.270;2023-04-29T03:40:44;22.50;;;15.30;;
59093;SDS011;44880;52.814;18.270;2023-04-29T03:43:16;23.90;;;15.60;;
59093;SDS011;44880;52.814;18.270;2023-04-29T03:45:49;23.30;;;14.70;;
59093;SDS011;44880;52.814;18.270;2023-04-29T03:48:23;25.50;;;15.70;;
59093;SDS011;44880;52.814;18.270;2023-04-29T03:50:55;22.20;;;14.60;;
59093;SDS011;44880;52.814;18.270;2023-04-29T03:53:27;27.10;;;18.40;;
59093;SDS011;44880;52.814;18.270;2023-04-29T03:56:00;24.00;;;16.30;;
59093;SDS011;44880;52.814;18.270;2023-04-29T03:58:32;27.40;;;21.10;;
59093;SDS011;44880;52.814;18.270;2023-04-29T04:01:04;29.10;;;18.10;;
59093;SDS011;44880;52.814;18.270;2023-04-29T04:03:39;24.90;;;17.80;;
59093;SDS011;44880;52.814;18.270;2023-04-29T04:06:11;42.20;;;27.50;;
59093;SDS011;44880;52.814;18.270;2023-04-29T04:08:44;28.00;;;20.50;;
59093;SDS011;44880;52.814;18.270;2023-04-29T04:11:22;23.10;;;15.70;;
59093;SDS011;44880;52.814;18.270;2023-04-29T04:13:58;24.40;;;15.00;;
59093;SDS011;44880;52.814;18.270;2023-04-29T04:16:30;25.90;;;16.80;;
59093;SDS011;44880;52.814;18.270;2023-04-29T04:19:05;23.50;;;15.90;;
59093;SDS011;44880;52.814;18.270;2023-04-29T04:21:39;21.90;;;14.60;;
59093;SDS011;44880;52.814;18.270;2023-04-29T04:24:11;21.40;;;13.80;;
59093;SDS011;44880;52.814;18.270;2023-04-29T04:26:43;21.90;;;15.00;;
59093;SDS011;44880;52.814;18.270;2023-04-29T04:29:24;21.60;;;15.90;;
59093;SDS011;44880;52.814;18.270;2023-04-29T04:31:59;66.60;;;43.90;;
59093;SDS011;44880;52.814;18.270;2023-04-29T04:34:31;31.70;;;21.20;;
59093;SDS011;44880;52.814;18.270;2023-04-29T04:37:05;28.20;;;18.30;;
59093;SDS011;44880;52.814;18.270;2023-04-29T04:39:37;28.00;;;19.80;;
59093;SDS011;44880;52.814;18.270;2023-04-29T04:42:10;53.90;;;31.70;;
59093;SDS011;44880;52.814;18.270;2023-04-29T04:44:42;55.00;;;33.70;;
59093;SDS011;44880;52.814;18.270;2023-04-29T04:47:22;29.30;;;18.50;;
59093;SDS011;44880;52.814;18.270;2023-04-29T04:50:06;39.20;;;24.90;;
59093;SDS011;44880;52.814;18.270;2023-04-29T04:52:38;40.10;;;23.80;;
59093;SDS011;44880;52.814;18.270;2023-04-29T04:55:38;32.30;;;20.40;;
59093;SDS011;44880;52.814;18.270;2023-04-29T04:58:10;24.80;;;16.70;;
59093;SDS011;44880;52.814;18.270;2023-04-29T05:03:15;25.00;;;14.70;;
59093;SDS011;44880;52.814;18.270;2023-04-29T05:05:46;19.90;;;13.70;;
59093;SDS011;44880;52.814;18.270;2023-04-29T05:08:25;20.30;;;12.90;;
59093;SDS011;44880;52.814;18.270;2023-04-29T05:10:59;21.40;;;13.60;;
59093;SDS011;44880;52.814;18.270;2023-04-29T05:13:31;19.30;;;12.30;;
59093;SDS011;44880;52.814;18.270;2023-04-29T05:16:17;21.30;;;13.60;;
59093;SDS011;44880;52.814;18.270;2023-04-29T05:18:49;25.20;;;14.90;;
59093;SDS011;44880;52.814;18.270;2023-04-29T05:21:21;22.70;;;13.90;;
59093;SDS011;44880;52.814;18.270;2023-04-29T05:26:40;19.30;;;12.20;;
59093;SDS011;44880;52.814;18.270;2023-04-29T05:29:12;18.10;;;12.60;;
59093;SDS011;44880;52.814;18.270;2023-04-29T05:32:08;18.20;;;12.10;;
59093;SDS011;44880;52.814;18.270;2023-04-29T05:34:45;19.90;;;12.50;;
59093;SDS011;44880;52.814;18.270;2023-04-29T05:40:21;17.40;;;11.80;;
59093;SDS011;44880;52.814;18.270;2023-04-29T05:45:48;18.90;;;12.20;;
59093;SDS011;44880;52.814;18.270;2023-04-29T05:48:23;19.10;;;12.70;;
59093;SDS011;44880;52.814;18.270;2023-04-29T05:51:07;18.00;;;12.20;;
59093;SDS011;44880;52.814;18.270;2023-04-29T05:53:45;21.60;;;13.10;;
59093;SDS011;44880;52.814;18.270;2023-04-29T05:56:17;20.10;;;12.80;;
59093;SDS011;44880;52.814;18.270;2023-04-29T05:58:59;18.30;;;11.60;;
59093;SDS011;44880;52.814;18.270;2023-04-29T06:01:37;19.30;;;12.20;;
59093;SDS011;44880;52.814;18.270;2023-04-29T06:04:09;19.20;;;11.30;;
59093;SDS011;44880;52.814;18.270;2023-04-29T06:07:03;16.20;;;10.80;;
59093;SDS011;44880;52.814;18.270;2023-04-29T06:12:52;17.60;;;11.50;;
59093;SDS011;44880;52.814;18.270;2023-04-29T06:15:25;19.70;;;12.20;;
59093;SDS011;44880;52.814;18.270;2023-04-29T06:17:58;18.50;;;11.30;;
59093;SDS011;44880;52.814;18.270;2023-04-29T06:20:33;20.10;;;11.40;;
59093;SDS011;44880;52.814;18.270;2023-04-29T06:23:05;19.90;;;12.10;;
59093;SDS011;44880;52.814;18.270;2023-04-29T06:25:37;18.10;;;10.90;;
59093;SDS011;44880;52.814;18.270;2023-04-29T06:28:26;16.90;;;11.40;;
59093;SDS011;44880;52.814;18.270;2023-04-29T06:31:01;18.40;;;11.50;;
59093;SDS011;44880;52.814;18.270;2023-04-29T06:33:33;17.40;;;11.50;;
59093;SDS011;44880;52.814;18.270;2023-04-29T06:36:05;17.00;;;11.10;;
59093;SDS011;44880;52.814;18.270;2023-04-29T06:38:59;16.70;;;10.90;;
59093;SDS011;44880;52.814;18.270;2023-04-29T06:42:10;17.70;;;11.70;;
59093;SDS011;44880;52.814;18.270;2023-04-29T06:44:57;17.10;;;10.70;;
59093;SDS011;44880;52.814;18.270;2023-04-29T06:47:49;18.00;;;11.40;;
59093;SDS011;44880;52.814;18.270;2023-04-29T06:50:52;21.00;;;13.20;;
59093;SDS011;44880;52.814;18.270;2023-04-29T06:53:27;31.10;;;22.60;;
59093;SDS011;44880;52.814;18.270;2023-04-29T06:55:59;23.90;;;13.90;;
59093;SDS011;44880;52.814;18.270;2023-04-29T06:58:33;19.10;;;12.50;;
59093;SDS011;44880;52.814;18.270;2023-04-29T07:01:08;29.80;;;16.90;;
59093;SDS011;44880;52.814;18.270;2023-04-29T07:03:46;33.90;;;19.60;;
59093;SDS011;44880;52.814;18.270;2023-04-29T07:06:21;50.90;;;30.10;;
59093;SDS011;44880;52.814;18.270;2023-04-29T07:08:56;32.00;;;20.70;;
59093;SDS011;44880;52.814;18.270;2023-04-29T07:11:29;19.30;;;13.60;;
59093;SDS011;44880;52.814;18.270;2023-04-29T07:16:34;17.70;;;11.70;;
59093;SDS011;44880;52.814;18.270;2023-04-29T07:19:10;20.10;;;12.00;;
59093;SDS011;44880;52.814;18.270;2023-04-29T07:21:45;17.40;;;12.00;;
59093;SDS011;44880;52.814;18.270;2023-04-29T07:24:19;18.00;;;12.10;;
59093;SDS011;44880;52.814;18.270;2023-04-29T07:26:54;16.00;;;11.20;;
59093;SDS011;44880;52.814;18.270;2023-04-29T07:29:28;17.60;;;10.80;;
59093;SDS011;44880;52.814;18.270;2023-04-29T07:32:00;18.20;;;11.80;;
59093;SDS011;44880;52.814;18.270;2023-04-29T07:34:38;17.60;;;11.70;;
59093;SDS011;44880;52.814;18.270;2023-04-29T07:37:11;19.90;;;13.00;;
59093;SDS011;44880;52.814;18.270;2023-04-29T07:39:45;18.80;;;12.70;;
59093;SDS011;44880;52.814;18.270;2023-04-29T07:42:16;17.80;;;12.60;;
59093;SDS011;44880;52.814;18.270;2023-04-29T07:45:07;21.60;;;14.10;;
59093;SDS011;44880;52.814;18.270;2023-04-29T07:47:44;21.60;;;14.70;;
59093;SDS011;44880;52.814;18.270;2023-04-29T07:50:31;20.20;;;13.10;;
59093;SDS011;44880;52.814;18.270;2023-04-29T07:53:04;21.60;;;14.30;;
59093;SDS011;44880;52.814;18.270;2023-04-29T07:55:37;20.90;;;15.10;;
59093;SDS011;44880;52.814;18.270;2023-04-29T08:01:06;20.60;;;13.20;;
59093;SDS011;44880;52.814;18.270;2023-04-29T08:03:39;20.60;;;13.60;;
59093;SDS011;44880;52.814;18.270;2023-04-29T08:06:31;19.90;;;13.20;;
59093;SDS011;44880;52.814;18.270;2023-04-29T08:09:12;19.40;;;13.50;;
59093;SDS011;44880;52.814;18.270;2023-04-29T08:11:53;21.50;;;14.20;;
59093;SDS011;44880;52.814;18.270;2023-04-29T08:14:25;21.40;;;14.40;;
59093;SDS011;44880;52.814;18.270;2023-04-29T08:17:01;22.30;;;14.20;;
59093;SDS011;44880;52.814;18.270;2023-04-29T08:22:30;23.90;;;14.90;;
59093;SDS011;44880;52.814;18.270;2023-04-29T08:25:02;25.10;;;14.90;;
59093;SDS011;44880;52.814;18.270;2023-04-29T08:27:56;30.30;;;19.50;;
59093;SDS011;44880;52.814;18.270;2023-04-29T08:30:31;23.10;;;14.40;;
59093;SDS011;44880;52.814;18.270;2023-04-29T08:33:18;20.80;;;12.90;;
59093;SDS011;44880;52.814;18.270;2023-04-29T08:35:56;20.50;;;12.80;;
59093;SDS011;44880;52.814;18.270;2023-04-29T08:38:31;22.30;;;13.60;;
59093;SDS011;44880;52.814;18.270;2023-04-29T08:44:01;20.20;;;14.10;;
59093;SDS011;44880;52.814;18.270;2023-04-29T08:49:20;20.50;;;13.30;;
59093;SDS011;44880;52.814;18.270;2023-04-29T08:52:01;20.60;;;14.30;;
59093;SDS011;44880;52.814;18.270;2023-04-29T08:54:54;23.30;;;14.90;;
59093;SDS011;44880;52.814;18.270;2023-04-29T08:57:34;21.40;;;16.10;;
59093;SDS011;44880;52.814;18.270;2023-04-29T09:03:08;22.80;;;15.60;;
59093;SDS011;44880;52.814;18.270;2023-04-29T09:08:36;23.00;;;15.40;;
59093;SDS011;44880;52.814;18.270;2023-04-29T09:11:09;20.10;;;14.90;;
59093;SDS011;44880;52.814;18.270;2023-04-29T09:13:51;21.30;;;14.40;;
59093;SDS011;44880;52.814;18.270;2023-04-29T09:16:29;22.10;;;14.70;;
59093;SDS011;44880;52.814;18.270;2023-04-29T09:19:02;23.70;;;16.20;;
59093;SDS011;44880;52.814;18.270;2023-04-29T09:21:46;23.40;;;14.30;;
59093;SDS011;44880;52.814;18.270;2023-04-29T09:24:25;20.60;;;13.30;;
59093;SDS011;44880;52.814;18.270;2023-04-29T09:26:58;19.40;;;14.00;;
59093;SDS011;44880;52.814;18.270;2023-04-29T09:32:33;21.90;;;14.00;;
59093;SDS011;44880;52.814;18.270;2023-04-29T09:38:11;20.30;;;14.40;;
59093;SDS011;44880;52.814;18.270;2023-04-29T09:40:53;22.00;;;14.60;;
59093;SDS011;44880;52.814;18.270;2023-04-29T09:43:29;21.20;;;14.10;;
59093;SDS011;44880;52.814;18.270;2023-04-29T09:46:01;20.70;;;14.50;;
59093;SDS011;44880;52.814;18.270;2023-04-29T09:51:28;21.60;;;15.10;;
59093;SDS011;44880;52.814;18.270;2023-04-29T09:54:01;22.20;;;14.90;;
59093;SDS011;44880;52.814;18.270;2023-04-29T09:56:56;22.10;;;14.50;;
59093;SDS011;44880;52.814;18.270;2023-04-29T09:59:29;20.30;;;14.90;;
59093;SDS011;44880;52.814;18.270;2023-04-29T10:04:59;21.10;;;14.80;;
59093;SDS011;44880;52.814;18.270;2023-04-29T10:12:53;20.00;;;14.10;;
59093;SDS011;44880;52.814;18.270;2023-04-29T10:15:28;20.20;;;14.30;;
59093;SDS011;44880;52.814;18.270;2023-04-29T10:18:21;19.00;;;14.30;;
59093;SDS011;44880;52.814;18.270;2023-04-29T10:21:00;19.40;;;14.40;;
59093;SDS011;44880;52.814;18.270;2023-04-29T10:23:54;20.20;;;14.50;;
59093;SDS011;44880;52.814;18.270;2023-04-29T10:26:28;20.60;;;15.20;;
59093;SDS011;44880;52.814;18.270;2023-04-29T10:31:51;19.60;;;14.20;;
59093;SDS011;44880;52.814;18.270;2023-04-29T10:34:24;18.10;;;14.30;;
59093;SDS011;44880;52.814;18.270;2023-04-29T10:39:55;20.20;;;14.20;;
59093;SDS011;44880;52.814;18.270;2023-04-29T10:45:31;20.00;;;14.10;;
59093;SDS011;44880;52.814;18.270;2023-04-29T10:51:03;18.70;;;15.20;;
59093;SDS011;44880;52.814;18.270;2023-04-29T10:53:35;18.00;;;13.60;;
59093;SDS011;44880;52.814;18.270;2023-04-29T10:56:43;19.60;;;14.50;;
59093;SDS011;44880;52.814;18.270;2023-04-29T10:59:18;21.40;;;15.30;;
59093;SDS011;44880;52.814;18.270;2023-04-29T11:02:05;18.20;;;13.50;;
59093;SDS011;44880;52.814;18.270;2023-04-29T11:05:05;20.30;;;14.10;;
59093;SDS011;44880;52.814;18.270;2023-04-29T11:08:09;20.00;;;14.20;;
59093;SDS011;44880;52.814;18.270;2023-04-29T11:11:00;18.40;;;13.00;;
59093;SDS011;44880;52.814;18.270;2023-04-29T11:13:36;19.80;;;13.90;;
59093;SDS011;44880;52.814;18.270;2023-04-29T11:16:09;16.90;;;12.70;;
59093;SDS011;44880;52.814;18.270;2023-04-29T11:21:37;20.90;;;13.30;;
59093;SDS011;44880;52.814;18.270;2023-04-29T11:24:09;20.10;;;13.60;;
59093;SDS011;44880;52.814;18.270;2023-04-29T11:27:00;16.80;;;12.90;;
59093;SDS011;44880;52.814;18.270;2023-04-29T11:29:33;18.80;;;13.00;;
59093;SDS011;44880;52.814;18.270;2023-04-29T11:35:07;17.80;;;12.10;;
59093;SDS011;44880;52.814;18.270;2023-04-29T11:37:40;15.50;;;11.00;;
59093;SDS011;44880;52.814;18.270;2023-04-29T11:40:51;16.00;;;10.40;;
59093;SDS011;44880;52.814;18.270;2023-04-29T11:46:30;15.50;;;10.60;;
59093;SDS011;44880;52.814;18.270;2023-04-29T11:51:59;12.90;;;9.20;;
59093;SDS011;44880;52.814;18.270;2023-04-29T11:54:30;13.90;;;9.20;;
59093;SDS011;44880;52.814;18.270;2023-04-29T11:57:23;14.20;;;9.30;;
59093;SDS011;44880;52.814;18.270;2023-04-29T11:59:55;14.90;;;9.90;;
59093;SDS011;44880;52.814;18.270;2023-04-29T12:05:22;12.70;;;9.30;;
59093;SDS011;44880;52.814;18.270;2023-04-29T12:07:56;15.80;;;10.50;;
59093;SDS011;44880;52.814;18.270;2023-04-29T12:13:12;15.70;;;10.70;;
59093;SDS011;44880;52.814;18.270;2023-04-29T12:15:47;14.10;;;9.70;;
59093;SDS011;44880;52.814;18.270;2023-04-29T12:18:35;19.50;;;12.90;;
59093;SDS011;44880;52.814;18.270;2023-04-29T12:21:07;14.20;;;9.80;;
59093;SDS011;44880;52.814;18.270;2023-04-29T12:23:39;16.10;;;9.50;;
59093;SDS011;44880;52.814;18.270;2023-04-29T12:26:30;16.30;;;9.10;;
59093;SDS011;44880;52.814;18.270;2023-04-29T12:29:03;14.20;;;9.10;;
59093;SDS011;44880;52.814;18.270;2023-04-29T12:37:00;14.10;;;8.20;;
59093;SDS011;44880;52.814;18.270;2023-04-29T12:39:32;14.10;;;9.10;;
59093;SDS011;44880;52.814;18.270;2023-04-29T12:45:05;12.20;;;8.10;;
59093;SDS011;44880;52.814;18.270;2023-04-29T12:50:34;12.30;;;7.90;;
59093;SDS011;44880;52.814;18.270;2023-04-29T12:53:07;13.00;;;7.90;;
59093;SDS011;44880;52.814;18.270;2023-04-29T12:56:18;13.50;;;8.20;;
59093;SDS011;44880;52.814;18.270;2023-04-29T13:01:37;14.60;;;9.80;;
59093;SDS011;44880;52.814;18.270;2023-04-29T13:04:08;12.70;;;8.30;;
59093;SDS011;44880;52.814;18.270;2023-04-29T13:06:40;12.70;;;8.10;;
59093;SDS011;44880;52.814;18.270;2023-04-29T13:09:32;13.20;;;7.30;;
59093;SDS011;44880;52.814;18.270;2023-04-29T13:12:08;12.70;;;7.60;;
59093;SDS011;44880;52.814;18.270;2023-04-29T13:14:57;12.70;;;8.00;;
59093;SDS011;44880;52.814;18.270;2023-04-29T13:17:32;12.10;;;8.50;;
59093;SDS011;44880;52.814;18.270;2023-04-29T13:20:04;11.80;;;8.20;;
59093;SDS011;44880;52.814;18.270;2023-04-29T13:25:34;13.10;;;7.90;;
59093;SDS011;44880;52.814;18.270;2023-04-29T13:30:53;13.10;;;8.20;;
59093;SDS011;44880;52.814;18.270;2023-04-29T13:35:54;13.10;;;8.70;;
59093;SDS011;44880;52.814;18.270;2023-04-29T13:38:44;13.00;;;8.50;;
59093;SDS011;44880;52.814;18.270;2023-04-29T13:41:16;13.20;;;8.80;;
59093;SDS011;44880;52.814;18.270;2023-04-29T13:43:48;12.50;;;8.30;;
59093;SDS011;44880;52.814;18.270;2023-04-29T13:46:49;11.70;;;7.80;;
59093;SDS011;44880;52.814;18.270;2023-04-29T13:49:20;14.20;;;8.50;;
59093;SDS011;44880;52.814;18.270;2023-04-29T13:54:36;12.70;;;9.20;;
59093;SDS011;44880;52.814;18.270;2023-04-29T13:57:08;13.30;;;9.20;;
59093;SDS011;44880;52.814;18.270;2023-04-29T14:02:40;13.10;;;8.90;;
59093;SDS011;44880;52.814;18.270;2023-04-29T14:05:11;14.10;;;9.60;;
59093;SDS011;44880;52.814;18.270;2023-04-29T14:07:57;14.80;;;9.20;;
59093;SDS011;44880;52.814;18.270;2023-04-29T14:10:29;13.50;;;8.20;;
59093;SDS011;44880;52.814;18.270;2023-04-29T14:13:01;12.40;;;8.20;;
59093;SDS011;44880;52.814;18.270;2023-04-29T14:18:27;13.60;;;9.10;;
59093;SDS011;44880;52.814;18.270;2023-04-29T14:20:58;13.30;;;8.90;;
59093;SDS011;44880;52.814;18.270;2023-04-29T14:24:05;15.10;;;10.30;;
59093;SDS011;44880;52.814;18.270;2023-04-29T14:26:37;14.10;;;10.40;;
59093;SDS011;44880;52.814;18.270;2023-04-29T14:29:26;13.00;;;8.80;;
59093;SDS011;44880;52.814;18.270;2023-04-29T14:31:58;11.80;;;8.20;;
59093;SDS011;44880;52.814;18.270;2023-04-29T14:34:30;14.30;;;9.90;;
59093;SDS011;44880;52.814;18.270;2023-04-29T14:37:19;12.80;;;9.50;;
59093;SDS011;44880;52.814;18.270;2023-04-29T14:39:51;14.20;;;9.00;;
59093;SDS011;44880;52.814;18.270;2023-04-29T14:45:01;13.50;;;9.30;;
59093;SDS011;44880;52.814;18.270;2023-04-29T14:47:35;12.50;;;9.10;;
59093;SDS011;44880;52.814;18.270;2023-04-29T14:50:08;12.60;;;8.60;;
59093;SDS011;44880;52.814;18.270;2023-04-29T14:52:54;15.30;;;9.10;;
59093;SDS011;44880;52.814;18.270;2023-04-29T14:55:27;12.40;;;8.80;;
59093;SDS011;44880;52.814;18.270;2023-04-29T14:58:01;13.50;;;8.80;;
59093;SDS011;44880;52.814;18.270;2023-04-29T15:00:49;13.30;;;8.70;;
59093;SDS011;44880;52.814;18.270;2023-04-29T15:03:20;11.90;;;8.60;;
59093;SDS011;44880;52.814;18.270;2023-04-29T15:05:55;15.70;;;10.70;;
59093;SDS011;44880;52.814;18.270;2023-04-29T15:11:26;14.10;;;10.50;;
59093;SDS011;44880;52.814;18.270;2023-04-29T15:17:06;15.10;;;10.60;;
59093;SDS011;44880;52.814;18.270;2023-04-29T15:22:28;15.70;;;11.20;;
59093;SDS011;44880;52.814;18.270;2023-04-29T15:30:19;17.40;;;12.00;;
59093;SDS011;44880;52.814;18.270;2023-04-29T15:32:51;17.00;;;13.00;;
59093;SDS011;44880;52.814;18.270;2023-04-29T15:38:14;15.90;;;11.70;;
59093;SDS011;44880;52.814;18.270;2023-04-29T15:43:15;17.10;;;12.60;;
59093;SDS011;44880;52.814;18.270;2023-04-29T15:46:08;17.80;;;12.70;;
59093;SDS011;44880;52.814;18.270;2023-04-29T15:48:40;28.10;;;21.20;;
59093;SDS011;44880;52.814;18.270;2023-04-29T15:54:17;21.50;;;15.80;;
59093;SDS011;44880;52.814;18.270;2023-04-29T15:59:54;19.50;;;14.50;;
59093;SDS011;44880;52.814;18.270;2023-04-29T16:05:34;19.40;;;14.30;;
59093;SDS011;44880;52.814;18.270;2023-04-29T16:11:10;15.70;;;12.20;;
59093;SDS011;44880;52.814;18.270;2023-04-29T16:20:12;19.30;;;13.10;;
59093;SDS011;44880;52.814;18.270;2023-04-29T16:25:48;17.60;;;12.60;;
59093;SDS011;44880;52.814;18.270;2023-04-29T16:31:27;27.20;;;21.30;;
59093;SDS011;44880;52.814;18.270;2023-04-29T16:37:04;18.80;;;15.00;;
59093;SDS011;44880;52.814;18.270;2023-04-29T16:42:43;16.60;;;13.40;;
59093;SDS011;44880;52.814;18.270;2023-04-29T16:48:21;17.50;;;13.90;;
59093;SDS011;44880;52.814;18.270;2023-04-29T17:00:57;22.30;;;18.70;;
59093;SDS011;44880;52.814;18.270;2023-04-29T17:04:03;23.10;;;17.90;;
59093;SDS011;44880;52.814;18.270;2023-04-29T17:06:35;23.50;;;18.80;;
59093;SDS011;44880;52.814;18.270;2023-04-29T17:09:41;21.00;;;16.60;;
59093;SDS011;44880;52.814;18.270;2023-04-29T17:15:21;19.30;;;16.60;;
59093;SDS011;44880;52.814;18.270;2023-04-29T17:20:24;24.00;;;17.40;;
59093;SDS011;44880;52.814;18.270;2023-04-29T17:22:56;25.50;;;17.40;;
59093;SDS011;44880;52.814;18.270;2023-04-29T17:25:28;22.20;;;17.50;;
59093;SDS011;44880;52.814;18.270;2023-04-29T17:28:00;21.50;;;16.70;;
59093;SDS011;44880;52.814;18.270;2023-04-29T17:30:32;18.70;;;13.40;;
59093;SDS011;44880;52.814;18.270;2023-04-29T17:33:04;18.60;;;12.50;;
59093;SDS011;44880;52.814;18.270;2023-04-29T17:35:36;17.00;;;12.20;;
59093;SDS011;44880;52.814;18.270;2023-04-29T17:38:08;14.00;;;10.00;;
59093;SDS011;44880;52.814;18.270;2023-04-29T17:40:40;13.00;;;8.60;;
59093;SDS011;44880;52.814;18.270;2023-04-29T17:43:11;13.60;;;8.40;;
59093;SDS011;44880;52.814;18.270;2023-04-29T17:45:44;13.00;;;7.70;;
59093;SDS011;44880;52.814;18.270;2023-04-29T17:48:15;15.00;;;7.50;;
59093;SDS011;44880;52.814;18.270;2023-04-29T17:50:50;11.80;;;7.00;;
59093;SDS011;44880;52.814;18.270;2023-04-29T17:53:22;12.30;;;7.60;;
59093;SDS011;44880;52.814;18.270;2023-04-29T17:55:58;13.60;;;7.80;;
59093;SDS011;44880;52.814;18.270;2023-04-29T17:58:30;12.80;;;7.90;;
59093;SDS011;44880;52.814;18.270;2023-04-29T18:01:04;14.80;;;9.80;;
59093;SDS011;44880;52.814;18.270;2023-04-29T18:03:35;17.00;;;11.80;;
59093;SDS011;44880;52.814;18.270;2023-04-29T18:06:09;16.80;;;11.80;;
59093;SDS011;44880;52.814;18.270;2023-04-29T18:08:43;18.70;;;13.00;;
59093;SDS011;44880;52.814;18.270;2023-04-29T18:11:15;20.40;;;15.10;;
59093;SDS011;44880;52.814;18.270;2023-04-29T18:13:47;23.50;;;17.10;;
59093;SDS011;44880;52.814;18.270;2023-04-29T18:16:19;24.50;;;18.60;;
59093;SDS011;44880;52.814;18.270;2023-04-29T18:18:52;24.00;;;15.60;;
59093;SDS011;44880;52.814;18.270;2023-04-29T18:21:24;22.70;;;15.90;;